Terminal Aerodrome Forecast
Issued by NWS

Home | Current Version | Previous Version | Text Only | Print | Product List | Glossary On
Versions: 1 2 3 4 5 6 7 8 9 10 11 12 13 14 15 16 17 18 19 20 21 22 23 24 25 26 27 28 29 30
000
FTUS41 KBOX 241732
TAFACK
TAF
KACK 241732Z 2418/2518 17007KT P6SM BKN250
     FM250700 08012KT P6SM OVC050
     FM250900 07014KT P6SM OVC008
     FM251300 07018G25KT 2SM -RA BR OVC008
     FM251500 07019G28KT 1/2SM -RA FG OVC003=

USA.gov is the U.S. government's official web portal to all federal, state and local government web resources and services.